Time;durP1;ratioP1;P1;durP2;ratioP2;P2;SDS_P1;SDS_P2;PMS_P1;PMS_P2;Temp;Humidity;BMP_temperature;BMP_pressure;BME280_temperature;BME280_humidity;BME280_pressure;Samples;Min_cycle;Max_cycle;Signal;HPM_P1;HPM_P2
2024/03/08 00:00:18;;;;;;;35.85;17.80;;;3.00;99.90;;;;;;4997445;28;20042;-64
2024/03/08 00:02:45;;;;;;;37.20;17.58;;;2.90;99.90;;;;;;4987573;28;20116;-64
2024/03/08 00:05:11;;;;;;;41.15;18.90;;;2.90;99.90;;;;;;4995370;28;20043;-64
2024/03/08 00:07:41;;;;;;;36.28;17.92;;;2.90;99.90;;;;;;5002527;28;20642;-64
2024/03/08 00:10:11;;;;;;;34.42;18.08;;;2.90;99.90;;;;;;4994263;28;20132;-64
2024/03/08 00:12:44;;;;;;;26.73;12.48;;;2.80;99.90;;;;;;4991994;28;20035;-64
2024/03/08 00:15:14;;;;;;;37.75;17.52;;;2.80;99.90;;;;;;4999843;28;20123;-64
2024/03/08 00:17:41;;;;;;;38.83;18.08;;;2.80;99.90;;;;;;4999238;28;20041;-64
2024/03/08 00:20:10;;;;;;;38.03;15.90;;;2.70;99.90;;;;;;4999195;28;20400;-63
2024/03/08 00:22:37;;;;;;;31.20;16.88;;;2.70;99.90;;;;;;5001627;28;20152;-64
2024/03/08 00:25:04;;;;;;;35.47;17.10;;;2.60;99.90;;;;;;4999093;28;20423;-63
2024/03/08 00:27:30;;;;;;;33.35;16.30;;;2.60;99.90;;;;;;5000963;28;20108;-64
2024/03/08 00:29:57;;;;;;;34.97;17.40;;;2.60;99.90;;;;;;5001151;28;20050;-64
2024/03/08 00:32:27;;;;;;;34.47;16.77;;;2.50;99.90;;;;;;4999814;28;20048;-64
2024/03/08 00:34:54;;;;;;;30.90;16.17;;;2.50;99.90;;;;;;4996369;28;20097;-64
2024/03/08 00:37:24;;;;;;;28.52;15.82;;;2.40;99.90;;;;;;4996825;28;20054;-64
2024/03/08 00:39:51;;;;;;;37.63;18.15;;;2.40;99.90;;;;;;4994426;28;20052;-64
2024/03/08 00:42:18;;;;;;;31.50;16.73;;;2.40;99.90;;;;;;5000129;28;20042;-64
2024/03/08 00:44:44;;;;;;;32.28;15.55;;;2.30;99.90;;;;;;4998024;28;20100;-64
2024/03/08 00:47:10;;;;;;;36.20;16.90;;;2.30;99.90;;;;;;4991532;28;20056;-64
2024/03/08 00:49:38;;;;;;;29.88;15.48;;;2.30;99.90;;;;;;5001201;28;20049;-64
2024/03/08 00:52:06;;;;;;;32.92;16.20;;;2.30;99.90;;;;;;4997019;28;20034;-64
2024/03/08 00:54:32;;;;;;;38.13;17.45;;;2.30;99.90;;;;;;5000722;28;20085;-64
2024/03/08 00:56:58;;;;;;;35.85;15.55;;;2.20;99.90;;;;;;4993305;28;20048;-64
2024/03/08 00:59:24;;;;;;;35.50;15.38;;;2.20;99.90;;;;;;5001661;28;20046;-64
2024/03/08 01:01:50;;;;;;;33.42;16.05;;;2.20;99.90;;;;;;4993592;28;20558;-64
2024/03/08 01:04:16;;;;;;;29.80;14.45;;;2.20;99.90;;;;;;5001313;28;20064;-64
2024/03/08 01:06:45;;;;;;;27.67;14.73;;;2.20;99.90;;;;;;4986000;28;20038;-63
2024/03/08 01:09:11;;;;;;;29.17;15.80;;;2.10;99.90;;;;;;4988691;28;20052;-64
2024/03/08 01:11:37;;;;;;;33.85;15.10;;;2.10;99.90;;;;;;4989463;28;20478;-64
2024/03/08 01:14:03;;;;;;;32.30;14.90;;;2.10;99.90;;;;;;4996970;28;20076;-64
2024/03/08 01:16:29;;;;;;;32.88;15.35;;;2.10;99.90;;;;;;4997631;28;20504;-64
2024/03/08 01:18:55;;;;;;;28.13;15.43;;;2.00;99.90;;;;;;5001939;28;20042;-64
2024/03/08 01:21:22;;;;;;;28.75;15.35;;;2.00;99.90;;;;;;4987432;28;20129;-64
2024/03/08 01:23:48;;;;;;;28.40;15.05;;;1.90;99.90;;;;;;4998169;28;20041;-64
2024/03/08 01:26:14;;;;;;;28.30;13.35;;;1.90;99.90;;;;;;4995631;28;20535;-64
2024/03/08 01:28:40;;;;;;;27.13;13.50;;;1.90;99.90;;;;;;5001729;28;20467;-64
2024/03/08 01:31:06;;;;;;;31.45;14.63;;;1.80;99.90;;;;;;4998272;28;20046;-64
2024/03/08 01:33:32;;;;;;;25.23;13.40;;;1.90;99.90;;;;;;4996639;28;20042;-64
2024/03/08 01:35:58;;;;;;;25.90;13.50;;;1.80;99.90;;;;;;4989227;28;20591;-63
2024/03/08 01:38:24;;;;;;;29.10;14.77;;;1.80;99.90;;;;;;4993376;28;20054;-64
2024/03/08 01:40:51;;;;;;;25.00;13.98;;;1.80;99.90;;;;;;5000744;28;20054;-64
2024/03/08 01:43:29;;;;;;;29.85;12.60;;;1.70;99.90;;;;;;4999593;28;20046;-64
2024/03/08 01:45:59;;;;;;;28.50;13.88;;;1.80;99.90;;;;;;4998290;28;20108;-64
2024/03/08 01:48:26;;;;;;;29.70;13.52;;;1.70;99.90;;;;;;4997277;28;20053;-64
2024/03/08 01:50:54;;;;;;;24.92;12.35;;;1.70;99.90;;;;;;4992345;28;20540;-63
2024/03/08 01:53:20;;;;;;;27.60;12.43;;;1.70;99.90;;;;;;4988479;28;20532;-64
2024/03/08 01:55:48;;;;;;;29.90;14.57;;;1.70;99.90;;;;;;4991768;28;20034;-64
2024/03/08 01:58:15;;;;;;;25.33;13.38;;;1.70;99.90;;;;;;4983993;28;20213;-64
2024/03/08 02:00:44;;;;;;;22.70;12.65;;;1.60;99.90;;;;;;4995824;28;20053;-64
2024/03/08 02:03:11;;;;;;;24.30;12.77;;;1.60;99.90;;;;;;4998182;28;20049;-64
2024/03/08 02:05:38;;;;;;;27.60;11.93;;;1.60;99.90;;;;;;4994094;28;20049;-64
2024/03/08 02:08:07;;;;;;;29.27;13.45;;;1.60;99.90;;;;;;5000313;28;20448;-64
2024/03/08 02:10:34;;;;;;;21.20;11.90;;;1.60;99.90;;;;;;4993338;28;20400;-64
2024/03/08 02:13:02;;;;;;;26.00;13.10;;;1.60;99.90;;;;;;5004175;28;20045;-64
2024/03/08 02:16:00;;;;;;;28.00;13.57;;;1.60;99.90;;;;;;4994867;28;20285;-64
2024/03/08 02:18:28;;;;;;;28.08;11.88;;;1.60;99.90;;;;;;4994665;28;20081;-64
2024/03/08 02:20:55;;;;;;;27.42;11.93;;;1.50;99.90;;;;;;4994656;28;20377;-64
2024/03/08 02:23:21;;;;;;;25.17;12.70;;;1.50;99.90;;;;;;5004082;28;20057;-64
2024/03/08 02:25:51;;;;;;;26.80;12.23;;;1.50;99.90;;;;;;4996546;28;20554;-64
2024/03/08 02:28:20;;;;;;;21.70;12.77;;;1.50;99.90;;;;;;5001195;28;20046;-64
2024/03/08 02:30:50;;;;;;;23.42;11.93;;;1.50;99.90;;;;;;4988408;28;20043;-63
2024/03/08 02:33:17;;;;;;;24.40;13.23;;;1.50;99.90;;;;;;5002708;28;20041;-63
2024/03/08 02:35:46;;;;;;;24.25;12.20;;;1.40;99.90;;;;;;5001913;28;20034;-64
2024/03/08 02:38:21;;;;;;;27.73;12.70;;;1.50;99.90;;;;;;4997717;28;20167;-64
2024/03/08 02:40:48;;;;;;;29.90;12.35;;;1.40;99.90;;;;;;5003044;28;20056;-64
2024/03/08 02:43:15;;;;;;;22.92;11.85;;;1.40;99.90;;;;;;4991278;28;20500;-64
2024/03/08 02:45:42;;;;;;;28.63;12.82;;;1.40;99.90;;;;;;5001424;28;20120;-64
2024/03/08 02:48:08;;;;;;;21.27;11.45;;;1.40;99.90;;;;;;4991084;28;20057;-64
2024/03/08 02:50:34;;;;;;;27.00;11.40;;;1.40;99.90;;;;;;4999710;28;20045;-64
2024/03/08 02:53:01;;;;;;;26.40;12.40;;;1.40;99.90;;;;;;5000566;28;21276;-63
2024/03/08 02:55:27;;;;;;;20.90;11.95;;;1.40;99.90;;;;;;5002591;28;20758;-64
2024/03/08 02:57:56;;;;;;;24.00;12.07;;;1.30;99.90;;;;;;4993189;28;20357;-64
2024/03/08 03:00:23;;;;;;;22.92;11.55;;;1.30;99.90;;;;;;4992283;28;20077;-63
2024/03/08 03:02:53;;;;;;;26.88;11.60;;;1.30;99.90;;;;;;5001127;28;20061;-64
2024/03/08 03:05:23;;;;;;;26.85;12.10;;;1.30;99.90;;;;;;4997993;28;20046;-64
2024/03/08 03:07:49;;;;;;;25.02;12.20;;;1.20;99.90;;;;;;4997609;28;20609;-64
2024/03/08 03:10:17;;;;;;;32.00;11.85;;;1.20;99.90;;;;;;4994125;28;20046;-64
2024/03/08 03:12:44;;;;;;;28.92;11.55;;;1.20;99.90;;;;;;5002384;28;20075;-63
2024/03/08 03:15:11;;;;;;;31.00;11.65;;;1.20;99.90;;;;;;5003160;28;20046;-64
2024/03/08 03:17:37;;;;;;;23.90;11.75;;;1.20;99.90;;;;;;4995090;28;20046;-63
2024/03/08 03:20:12;;;;;;;22.40;12.20;;;1.20;99.90;;;;;;4996276;28;20416;-64
2024/03/08 03:22:38;;;;;;;30.45;12.13;;;1.20;99.90;;;;;;4997691;28;20499;-64
2024/03/08 03:25:06;;;;;;;28.20;12.30;;;1.20;99.90;;;;;;4986270;28;20050;-64
2024/03/08 03:27:32;;;;;;;22.35;11.63;;;1.20;99.90;;;;;;4993671;28;20504;-63
2024/03/08 03:30:19;;;;;;;19.05;11.32;;;1.10;99.90;;;;;;4995937;28;20061;-64
2024/03/08 03:32:46;;;;;;;26.73;11.52;;;1.10;99.90;;;;;;4999246;28;20045;-64
2024/03/08 03:35:14;;;;;;;22.85;12.10;;;1.10;99.90;;;;;;5000271;28;20085;-64
2024/03/08 03:37:42;;;;;;;21.05;11.48;;;1.10;99.90;;;;;;4998882;28;20096;-64
2024/03/08 03:40:09;;;;;;;23.60;12.45;;;1.00;99.90;;;;;;4985168;28;20054;-64
2024/03/08 03:42:35;;;;;;;27.35;12.52;;;1.00;99.90;;;;;;5002096;28;20042;-64
2024/03/08 03:45:02;;;;;;;24.35;12.15;;;1.00;99.90;;;;;;4989002;28;20061;-64
2024/03/08 03:47:28;;;;;;;23.73;11.88;;;0.90;99.90;;;;;;5001147;28;20062;-64
2024/03/08 03:49:54;;;;;;;23.30;11.63;;;0.90;99.90;;;;;;4994656;28;20057;-64
2024/03/08 03:52:19;;;;;;;19.67;10.20;;;0.90;99.90;;;;;;4991846;28;20045;-64
2024/03/08 03:54:45;;;;;;;28.02;12.27;;;0.90;99.90;;;;;;4998638;28;20049;-64
2024/03/08 03:57:12;;;;;;;23.73;11.35;;;0.90;99.90;;;;;;4995930;28;20044;-64
2024/03/08 03:59:38;;;;;;;22.33;11.48;;;0.90;99.90;;;;;;4991895;28;20050;-64
2024/03/08 04:02:03;;;;;;;25.67;11.55;;;0.90;99.90;;;;;;5000495;28;20050;-64
2024/03/08 04:04:29;;;;;;;28.83;12.73;;;0.90;99.90;;;;;;5002057;28;20042;-64
2024/03/08 04:06:55;;;;;;;24.63;11.95;;;0.80;99.90;;;;;;5002468;28;20108;-63
2024/03/08 04:09:22;;;;;;;26.00;12.18;;;0.90;99.90;;;;;;4993875;28;20034;-64
2024/03/08 04:11:49;;;;;;;26.35;11.68;;;0.80;99.90;;;;;;4984987;28;20137;-64
2024/03/08 04:14:15;;;;;;;23.90;11.57;;;0.80;99.90;;;;;;4992884;28;20046;-64
2024/03/08 04:16:41;;;;;;;22.77;11.73;;;0.80;99.90;;;;;;5002157;28;20040;-64
2024/03/08 04:19:07;;;;;;;24.08;10.90;;;0.80;99.90;;;;;;5001608;28;20050;-64
2024/03/08 04:21:33;;;;;;;21.83;10.68;;;0.80;99.90;;;;;;4988750;28;20037;-63
2024/03/08 04:23:59;;;;;;;24.40;11.85;;;0.80;99.90;;;;;;4996705;28;20116;-63
2024/03/08 04:26:25;;;;;;;24.25;11.60;;;0.70;99.90;;;;;;5001234;28;20508;-64
2024/03/08 04:28:51;;;;;;;25.92;11.60;;;0.80;99.90;;;;;;4997832;28;20515;-63
2024/03/08 04:31:17;;;;;;;26.58;11.13;;;0.80;99.90;;;;;;4997925;28;20050;-64
2024/03/08 04:33:44;;;;;;;18.23;10.32;;;0.80;99.90;;;;;;4994909;28;20042;-63
2024/03/08 04:36:13;;;;;;;23.80;11.23;;;0.80;99.90;;;;;;4990977;28;20041;-64
2024/03/08 04:38:40;;;;;;;20.48;11.02;;;0.80;99.90;;;;;;4990676;28;20116;-63
2024/03/08 04:41:07;;;;;;;20.85;10.45;;;0.80;99.90;;;;;;4996806;28;20050;-64
2024/03/08 04:43:34;;;;;;;23.67;9.82;;;0.70;99.90;;;;;;4995530;28;20046;-64
2024/03/08 04:45:59;;;;;;;24.42;11.55;;;0.70;99.90;;;;;;4985473;28;20056;-64
2024/03/08 04:48:26;;;;;;;23.80;11.30;;;0.70;99.90;;;;;;4996113;28;20042;-64
2024/03/08 04:50:53;;;;;;;23.05;10.23;;;0.70;99.90;;;;;;4988599;28;20262;-64
2024/03/08 04:53:19;;;;;;;20.00;10.57;;;0.60;99.90;;;;;;4997766;28;20042;-64
2024/03/08 04:55:45;;;;;;;22.05;11.38;;;0.70;99.90;;;;;;4997118;28;20054;-64
2024/03/08 04:58:11;;;;;;;25.40;11.43;;;0.70;99.90;;;;;;4983558;28;20072;-64
2024/03/08 05:00:37;;;;;;;20.77;9.93;;;0.70;99.90;;;;;;4994587;28;20044;-64
2024/03/08 05:03:04;;;;;;;23.42;9.27;;;0.70;99.90;;;;;;4995736;28;20057;-64
2024/03/08 05:05:30;;;;;;;22.23;10.63;;;0.70;99.90;;;;;;4991917;28;20493;-63
2024/03/08 05:07:56;;;;;;;20.95;9.88;;;0.70;99.90;;;;;;4985428;28;20066;-64
2024/03/08 05:10:22;;;;;;;20.48;9.65;;;0.70;99.90;;;;;;4996438;28;20496;-64
2024/03/08 05:12:48;;;;;;;18.88;11.00;;;0.70;99.90;;;;;;5000123;28;20148;-64
2024/03/08 05:15:14;;;;;;;19.88;11.05;;;0.80;99.90;;;;;;5000965;28;20583;-64
2024/03/08 05:17:40;;;;;;;24.42;10.48;;;0.80;99.90;;;;;;4993326;28;20199;-64
2024/03/08 05:20:12;;;;;;;19.75;10.25;;;0.80;99.90;;;;;;4992472;28;20591;-64
2024/03/08 05:22:40;;;;;;;24.95;11.43;;;0.80;99.90;;;;;;4982269;28;20579;-63
2024/03/08 05:25:08;;;;;;;25.55;11.30;;;0.80;99.90;;;;;;5000059;28;20129;-64
2024/03/08 05:27:35;;;;;;;22.10;10.73;;;0.90;99.90;;;;;;4992676;28;20076;-64
2024/03/08 05:30:04;;;;;;;23.25;9.48;;;0.90;99.90;;;;;;4996313;28;20049;-64
2024/03/08 05:32:31;;;;;;;21.67;10.75;;;0.90;99.90;;;;;;5000835;28;20089;-64
2024/03/08 05:34:57;;;;;;;24.23;10.13;;;0.90;99.90;;;;;;4988790;28;20417;-64
2024/03/08 05:37:23;;;;;;;19.50;9.63;;;0.90;99.90;;;;;;4992866;28;20112;-64
2024/03/08 05:39:49;;;;;;;18.70;10.27;;;0.90;99.90;;;;;;4989298;28;20046;-64
2024/03/08 05:42:15;;;;;;;28.35;10.27;;;0.90;99.90;;;;;;4998107;28;20500;-64
2024/03/08 05:44:41;;;;;;;24.05;11.45;;;0.90;99.90;;;;;;5001765;28;20511;-64
2024/03/08 05:47:06;;;;;;;21.00;10.88;;;0.90;99.90;;;;;;4995269;28;20097;-64
2024/03/08 05:49:33;;;;;;;24.42;11.40;;;0.90;99.90;;;;;;4996048;28;20475;-64
2024/03/08 05:52:00;;;;;;;19.90;10.70;;;1.00;99.90;;;;;;4985961;28;20109;-64
2024/03/08 05:54:27;;;;;;;22.60;10.18;;;1.00;99.90;;;;;;4996562;28;20056;-63
2024/03/08 05:56:52;;;;;;;21.40;9.45;;;0.90;99.90;;;;;;4992368;28;20133;-64
2024/03/08 05:59:18;;;;;;;24.17;10.27;;;1.00;99.90;;;;;;4992724;28;20540;-64
2024/03/08 06:01:45;;;;;;;29.83;11.20;;;1.00;99.90;;;;;;4990533;28;20049;-64
2024/03/08 06:04:11;;;;;;;21.00;10.75;;;1.00;99.90;;;;;;4987250;28;20554;-64
2024/03/08 06:06:37;;;;;;;19.85;10.18;;;1.00;99.90;;;;;;5002222;28;20046;-63
2024/03/08 06:09:09;;;;;;;21.55;10.55;;;1.10;99.90;;;;;;5004744;28;20077;-64
2024/03/08 06:11:37;;;;;;;17.50;10.07;;;1.10;99.90;;;;;;4992842;28;20046;-64
2024/03/08 06:14:03;;;;;;;29.52;10.45;;;1.10;99.90;;;;;;4997381;28;20097;-64
2024/03/08 06:16:29;;;;;;;21.00;10.75;;;1.10;99.90;;;;;;5000989;28;20148;-64
2024/03/08 06:18:58;;;;;;;16.65;10.00;;;1.20;99.90;;;;;;4998720;28;20089;-64
2024/03/08 06:21:27;;;;;;;22.13;7.88;;;1.20;99.90;;;;;;4995199;28;20038;-64
2024/03/08 06:24:00;;;;;;;23.15;11.68;;;1.20;99.90;;;;;;5004045;28;20499;-64
2024/03/08 06:26:28;;;;;;;22.02;10.20;;;1.20;99.90;;;;;;4993444;28;20056;-64
2024/03/08 06:28:54;;;;;;;17.48;9.90;;;1.20;99.90;;;;;;5000595;28;20128;-64
2024/03/08 06:31:20;;;;;;;22.20;10.60;;;1.20;99.90;;;;;;4994668;28;20049;-64
2024/03/08 06:33:46;;;;;;;24.90;11.10;;;1.10;99.90;;;;;;5004188;28;20041;-64
2024/03/08 06:36:13;;;;;;;23.98;10.98;;;1.20;99.90;;;;;;4998736;28;20085;-64
2024/03/08 06:38:42;;;;;;;18.15;9.48;;;1.20;99.90;;;;;;4999778;28;20509;-64
2024/03/08 06:41:15;;;;;;;19.45;10.02;;;1.20;99.90;;;;;;4997341;28;20085;-64
2024/03/08 06:43:45;;;;;;;20.83;10.48;;;1.20;99.90;;;;;;4988385;28;20050;-64
2024/03/08 06:46:12;;;;;;;27.30;12.07;;;1.30;99.90;;;;;;5000400;28;20042;-64
2024/03/08 06:48:39;;;;;;;16.83;10.20;;;1.30;99.90;;;;;;4991419;28;20046;-63
2024/03/08 06:51:05;;;;;;;23.52;10.38;;;1.40;99.90;;;;;;5002560;28;20054;-64
2024/03/08 06:53:31;;;;;;;21.90;11.02;;;1.40;99.90;;;;;;4994193;28;20043;-64
2024/03/08 06:55:58;;;;;;;16.58;8.63;;;1.40;99.90;;;;;;4986655;28;20046;-64
2024/03/08 06:58:24;;;;;;;19.40;10.05;;;1.40;99.90;;;;;;5000084;28;20037;-64
2024/03/08 07:00:52;;;;;;;27.02;10.80;;;1.50;99.90;;;;;;5000118;28;20052;-64
2024/03/08 07:03:19;;;;;;;18.88;10.45;;;1.50;99.90;;;;;;4997547;28;20061;-64
2024/03/08 07:05:45;;;;;;;23.20;10.95;;;1.60;99.90;;;;;;5001077;28;20496;-64
2024/03/08 07:08:14;;;;;;;22.63;11.13;;;1.60;99.90;;;;;;4999438;28;20050;-64
2024/03/08 07:10:41;;;;;;;22.10;11.55;;;1.70;99.90;;;;;;4989765;28;20065;-63
2024/03/08 07:13:08;;;;;;;23.48;10.27;;;1.70;99.90;;;;;;4995645;28;20073;-64
2024/03/08 07:15:35;;;;;;;22.90;10.68;;;1.80;99.90;;;;;;4995769;28;20050;-64
2024/03/08 07:18:01;;;;;;;23.08;10.75;;;1.90;99.90;;;;;;4991516;28;20042;-64
2024/03/08 07:20:28;;;;;;;19.67;10.98;;;1.90;99.90;;;;;;4993571;28;20041;-64
2024/03/08 07:22:54;;;;;;;26.42;11.50;;;2.00;99.90;;;;;;5000165;28;20074;-64
2024/03/08 07:25:29;;;;;;;21.23;10.73;;;2.00;99.90;;;;;;4996892;28;20042;-64
2024/03/08 07:27:55;;;;;;;26.08;12.02;;;2.00;99.90;;;;;;5000695;28;20211;-64
2024/03/08 07:31:12;;;;;;;22.33;12.10;;;2.10;99.90;;;;;;5001733;28;20045;-64
2024/03/08 07:33:15;;;;;;;28.40;11.93;;;2.10;99.90;;;;;;4997205;28;20046;-64
2024/03/08 07:35:42;;;;;;;26.20;12.55;;;2.20;99.90;;;;;;4988497;28;20049;-64
2024/03/08 07:38:09;;;;;;;25.25;12.70;;;2.20;99.90;;;;;;5000853;28;20041;-64
2024/03/08 07:40:40;;;;;;;20.88;10.18;;;2.30;99.90;;;;;;4997149;28;20057;-64
2024/03/08 07:43:10;;;;;;;24.15;11.30;;;2.30;99.90;;;;;;4992876;28;20046;-64
2024/03/08 07:45:37;;;;;;;30.77;12.45;;;2.40;99.90;;;;;;4994628;28;20081;-64
2024/03/08 07:48:03;;;;;;;31.27;12.10;;;2.40;99.90;;;;;;4999520;28;20439;-63
2024/03/08 07:50:32;;;;;;;29.13;13.10;;;2.50;99.90;;;;;;4998795;28;20054;-64
2024/03/08 07:52:58;;;;;;;28.42;14.57;;;2.50;99.90;;;;;;4997446;28;20589;-64
2024/03/08 07:55:24;;;;;;;24.98;12.10;;;2.60;99.90;;;;;;4998505;28;21072;-64
2024/03/08 07:57:50;;;;;;;23.42;12.73;;;2.70;99.90;;;;;;4994923;28;20056;-64
2024/03/08 08:00:18;;;;;;;27.20;11.60;;;2.70;99.90;;;;;;5001740;28;20046;-64
2024/03/08 08:02:49;;;;;;;28.75;13.02;;;2.80;99.90;;;;;;4995758;28;20092;-64
2024/03/08 08:05:18;;;;;;;23.08;12.77;;;2.90;99.90;;;;;;4995224;28;20443;-64
2024/03/08 08:07:46;;;;;;;27.27;13.00;;;3.00;99.90;;;;;;4996786;28;20167;-64
2024/03/08 08:10:22;;;;;;;24.25;11.60;;;3.00;99.90;;;;;;4987783;28;20042;-64
2024/03/08 08:12:49;;;;;;;26.05;13.38;;;3.10;99.90;;;;;;4992825;28;20043;-64
2024/03/08 08:15:16;;;;;;;28.10;11.95;;;3.20;99.90;;;;;;5000252;28;20052;-64
2024/03/08 08:17:42;;;;;;;25.52;13.65;;;3.30;99.90;;;;;;4990070;28;20046;-64
2024/03/08 08:20:11;;;;;;;28.33;12.52;;;3.40;99.90;;;;;;4993713;28;20056;-64
2024/03/08 08:22:39;;;;;;;26.85;12.77;;;3.40;99.90;;;;;;4997348;28;20061;-63
2024/03/08 08:25:05;;;;;;;17.77;8.15;;;3.40;99.90;;;;;;4992788;28;20049;-64
2024/03/08 08:27:30;;;;;;;16.67;8.73;;;3.50;99.90;;;;;;4989193;28;20060;-64
2024/03/08 08:29:56;;;;;;;6.13;4.05;;;3.50;99.90;;;;;;5001982;28;20423;-64
2024/03/08 08:32:22;;;;;;;25.23;12.23;;;3.60;99.90;;;;;;5000066;28;20128;-64
2024/03/08 08:34:48;;;;;;;20.00;10.50;;;3.60;99.90;;;;;;5000370;28;20603;-64
2024/03/08 08:37:16;;;;;;;20.80;9.85;;;3.60;99.90;;;;;;4995654;28;20049;-63
2024/03/08 08:39:42;;;;;;;22.58;11.02;;;3.70;99.90;;;;;;4997531;28;20403;-64
2024/03/08 08:42:09;;;;;;;18.52;8.88;;;3.70;99.90;;;;;;4999045;28;20419;-64
2024/03/08 08:44:35;;;;;;;22.58;10.73;;;3.80;99.90;;;;;;5002162;28;20049;-64
2024/03/08 08:47:03;;;;;;;21.73;11.80;;;3.80;93.60;;;;;;4995191;28;20042;-64
2024/03/08 08:49:30;;;;;;;14.63;7.28;;;3.80;99.90;;;;;;4988020;28;20089;-64
2024/03/08 08:51:58;;;;;;;21.33;8.23;;;3.80;77.00;;;;;;4999089;28;20046;-64
2024/03/08 08:54:24;;;;;;;13.30;6.32;;;3.80;90.10;;;;;;5000146;28;20123;-64
2024/03/08 08:56:51;;;;;;;20.83;10.73;;;3.70;78.70;;;;;;4999787;28;20046;-63
2024/03/08 08:59:19;;;;;;;23.13;11.10;;;3.80;87.50;;;;;;4992356;28;20495;-64
2024/03/08 09:01:50;;;;;;;28.23;12.07;;;3.80;85.90;;;;;;4992722;28;20492;-64
2024/03/08 09:04:16;;;;;;;25.92;12.02;;;4.00;97.90;;;;;;4989171;28;20573;-64
2024/03/08 09:06:42;;;;;;;28.42;14.10;;;4.20;99.90;;;;;;4999548;28;20099;-64
2024/03/08 09:09:13;;;;;;;26.05;15.00;;;4.30;88.60;;;;;;5000322;28;20046;-64
2024/03/08 09:11:43;;;;;;;7.13;4.93;;;4.40;78.90;;;;;;5000489;28;20449;-64
2024/03/08 09:14:11;;;;;;;20.15;9.60;;;4.30;41.60;;;;;;4997634;28;20058;-64
2024/03/08 09:16:37;;;;;;;33.53;16.23;;;4.30;54.50;;;;;;4996464;28;20049;-64
2024/03/08 09:19:03;;;;;;;14.95;8.35;;;4.20;56.70;;;;;;5004795;28;20495;-64
2024/03/08 09:21:29;;;;;;;28.70;13.13;;;4.30;44.40;;;;;;5001513;28;20045;-64
2024/03/08 09:23:55;;;;;;;12.30;6.30;;;4.40;51.10;;;;;;5005295;28;20428;-63
2024/03/08 09:26:22;;;;;;;18.05;9.35;;;4.30;36.70;;;;;;5003779;28;20065;-64
2024/03/08 09:28:48;;;;;;;16.67;8.05;;;4.30;45.00;;;;;;5003469;28;20132;-63
2024/03/08 09:31:14;;;;;;;8.85;5.82;;;4.30;29.50;;;;;;5001683;28;20664;-63
2024/03/08 09:33:42;;;;;;;24.35;14.25;;;4.40;29.60;;;;;;5004859;28;20034;-63
2024/03/08 09:36:09;;;;;;;26.92;12.75;;;4.40;23.50;;;;;;4997595;28;20050;-63
2024/03/08 09:38:36;;;;;;;21.75;11.93;;;4.50;21.20;;;;;;5000758;28;20373;-63
2024/03/08 09:41:04;;;;;;;22.58;13.05;;;4.60;40.00;;;;;;4999389;28;20096;-63
2024/03/08 09:43:30;;;;;;;27.05;13.55;;;4.70;17.80;;;;;;4997422;28;20048;-63
2024/03/08 09:45:57;;;;;;;30.85;14.48;;;4.60;16.70;;;;;;5001337;28;20046;-63
2024/03/08 09:48:24;;;;;;;24.60;12.52;;;4.70;26.80;;;;;;5002070;28;20060;-63
2024/03/08 09:50:50;;;;;;;17.58;8.30;;;4.80;15.40;;;;;;5003592;28;20062;-63
2024/03/08 09:53:16;;;;;;;23.70;11.93;;;4.80;13.40;;;;;;5003641;28;20132;-62
2024/03/08 09:55:44;;;;;;;26.15;13.30;;;4.90;10.30;;;;;;5002956;28;20518;-62
2024/03/08 09:58:36;;;;;;;7.55;5.13;;;4.80;12.40;;;;;;4979817;28;20105;-62
2024/03/08 10:01:04;;;;;;;26.00;13.15;;;4.80;1.00;;;;;;4998425;28;20080;-62
2024/03/08 10:03:32;;;;;;;34.60;17.00;;;4.90;1.70;;;;;;4996870;28;20144;-62
2024/03/08 10:06:00;;;;;;;30.77;15.25;;;4.90;1.00;;;;;;4996740;28;20058;-62
2024/03/08 10:08:30;;;;;;;32.08;14.73;;;5.10;21.20;;;;;;4998828;28;20080;-62
2024/03/08 10:10:58;;;;;;;41.80;17.08;;;5.20;1.00;;;;;;4988319;28;20136;-62
2024/03/08 10:13:28;;;;;;;12.95;5.13;;;5.30;8.70;;;;;;4996454;28;20037;-62
2024/03/08 10:15:54;;;;;;;27.55;14.20;;;5.30;1.00;;;;;;5002090;28;20133;-62
2024/03/08 10:18:21;;;;;;;18.67;9.60;;;5.30;1.00;;;;;;5002408;28;20050;-62
2024/03/08 10:21:07;;;;;;;22.75;10.38;;;5.30;1.00;;;;;;5001557;28;20084;-62
2024/03/08 10:23:33;;;;;;;11.13;6.10;;;5.40;1.00;;;;;;4994329;28;20049;-62
2024/03/08 10:26:21;;;;;;;21.30;10.63;;;5.50;1.00;;;;;;4998400;28;20042;-62
2024/03/08 10:28:52;;;;;;;13.45;7.70;;;5.50;1.00;;;;;;4996097;28;20045;-62
2024/03/08 10:31:19;;;;;;;29.75;15.40;;;5.60;1.00;;;;;;4984996;28;20046;-62
2024/03/08 10:33:49;;;;;;;22.20;11.32;;;5.60;1.00;;;;;;5003069;28;20042;-61
2024/03/08 10:36:15;;;;;;;33.08;16.70;;;5.60;1.00;;;;;;5000885;28;20491;-62
2024/03/08 10:38:46;;;;;;;23.10;13.27;;;5.80;1.10;;;;;;4983316;28;20042;-63
2024/03/08 10:41:13;;;;;;;33.63;15.82;;;5.90;1.00;;;;;;4998556;28;20049;-62
2024/03/08 10:44:06;;;;;;;34.78;17.95;;;5.90;1.00;;;;;;5002817;28;20046;-62
2024/03/08 10:46:44;;;;;;;25.77;11.30;;;6.10;1.00;;;;;;5000667;28;20496;-62
2024/03/08 10:49:17;;;;;;;31.33;16.85;;;6.20;1.00;;;;;;4996859;28;20404;-62
2024/03/08 10:51:44;;;;;;;32.10;15.65;;;6.20;1.00;;;;;;4995617;28;20462;-62
2024/03/08 10:54:15;;;;;;;27.40;12.77;;;6.20;1.00;;;;;;4989051;28;20505;-62
2024/03/08 10:56:41;;;;;;;28.80;17.75;;;6.30;1.00;;;;;;4997024;28;20069;-61
2024/03/08 10:59:11;;;;;;;29.33;12.55;;;6.30;1.00;;;;;;4997171;28;20485;-62
2024/03/08 11:01:37;;;;;;;33.85;17.63;;;6.40;1.00;;;;;;4998066;28;20057;-62
2024/03/08 11:04:06;;;;;;;30.30;17.10;;;6.40;1.00;;;;;;4999982;28;20052;-62
2024/03/08 11:06:38;;;;;;;27.77;15.60;;;6.50;1.00;;;;;;4993337;28;20459;-62
2024/03/08 11:09:27;;;;;;;30.13;15.90;;;6.50;1.00;;;;;;4996388;28;20133;-62
2024/03/08 11:12:15;;;;;;;25.35;15.15;;;6.50;1.00;;;;;;4994409;28;20401;-62
2024/03/08 11:14:48;;;;;;;29.30;16.42;;;6.60;1.00;;;;;;4997938;28;20048;-62
2024/03/08 11:17:17;;;;;;;33.72;18.13;;;6.70;1.00;;;;;;4992767;28;20453;-62
2024/03/08 11:19:48;;;;;;;16.92;6.85;;;6.80;1.00;;;;;;4996633;28;20046;-62
2024/03/08 11:22:27;;;;;;;25.15;12.25;;;6.80;1.00;;;;;;5002526;28;20129;-62
2024/03/08 11:24:53;;;;;;;24.00;13.75;;;6.80;1.00;;;;;;5001701;28;20184;-62
2024/03/08 11:27:22;;;;;;;9.13;5.93;;;6.80;1.00;;;;;;4996163;28;20050;-62
2024/03/08 11:30:11;;;;;;;32.03;18.02;;;6.90;1.00;;;;;;5000152;28;20374;-62
2024/03/08 11:32:38;;;;;;;33.58;17.02;;;7.00;1.00;;;;;;4990415;28;20774;-62
2024/03/08 11:35:18;;;;;;;25.20;13.68;;;7.00;1.00;;;;;;5002831;28;20050;-62
2024/03/08 11:37:45;;;;;;;15.48;8.38;;;7.10;1.00;;;;;;4996752;28;20065;-63
2024/03/08 11:40:19;;;;;;;18.13;8.20;;;7.10;1.00;;;;;;4992218;28;20041;-62
2024/03/08 11:42:47;;;;;;;28.23;15.45;;;7.00;1.00;;;;;;4995450;28;20042;-62
2024/03/08 11:45:14;;;;;;;26.73;14.68;;;7.10;1.00;;;;;;4996880;28;20596;-62
2024/03/08 11:47:46;;;;;;;31.27;16.35;;;7.30;1.00;;;;;;4987650;28;20148;-62
2024/03/08 11:50:14;;;;;;;33.97;17.45;;;7.30;1.00;;;;;;4996785;28;20046;-62
2024/03/08 11:52:40;;;;;;;34.10;18.77;;;7.40;1.00;;;;;;4997259;28;20056;-61
2024/03/08 11:55:07;;;;;;;25.85;16.13;;;7.60;1.00;;;;;;5000171;28;20050;-62
2024/03/08 11:57:33;;;;;;;13.02;8.05;;;7.70;1.00;;;;;;5002154;28;20471;-62
2024/03/08 12:00:08;;;;;;;34.10;19.35;;;7.70;1.00;;;;;;5001253;28;20045;-62
2024/03/08 12:02:38;;;;;;;30.13;17.70;;;7.60;1.00;;;;;;4998895;28;20496;-62
2024/03/08 12:05:10;;;;;;;27.67;15.43;;;7.60;1.00;;;;;;5001525;28;20081;-62
2024/03/08 12:07:36;;;;;;;25.15;13.25;;;7.60;1.00;;;;;;5002159;28;20573;-62
2024/03/08 12:10:21;;;;;;;22.13;12.75;;;7.60;1.00;;;;;;4990240;28;20518;-62
2024/03/08 12:12:51;;;;;;;26.33;12.80;;;7.70;1.00;;;;;;4991172;28;20138;-62
2024/03/08 12:15:22;;;;;;;25.75;15.25;;;7.80;1.00;;;;;;4993114;28;20049;-62
2024/03/08 12:17:52;;;;;;;25.02;13.93;;;7.80;1.00;;;;;;4991526;28;20117;-61
2024/03/08 12:20:21;;;;;;;;;;;7.80;1.00;;;;;;5001439;28;20041;-62
2024/03/08 12:22:49;;;;;;;28.38;16.70;;;7.80;1.00;;;;;;4988650;28;19972;-62
2024/03/08 12:25:17;;;;;;;31.45;17.63;;;7.90;1.00;;;;;;4987998;28;20042;-61
2024/03/08 12:27:44;;;;;;;11.85;6.68;;;8.00;1.00;;;;;;4989523;28;20093;-61
2024/03/08 12:30:22;;;;;;;20.38;14.30;;;8.20;1.00;;;;;;4999296;28;20412;-62
2024/03/08 12:32:58;;;;;;;19.67;12.32;;;8.20;1.00;;;;;;4991175;28;20050;-61
2024/03/08 12:35:26;;;;;;;31.08;17.38;;;8.20;1.00;;;;;;4991926;28;20050;-61
2024/03/08 12:37:56;;;;;;;23.58;13.07;;;8.20;1.00;;;;;;4998050;28;20085;-62
2024/03/08 12:40:28;;;;;;;25.80;16.00;;;8.30;1.00;;;;;;4991435;28;20373;-61
2024/03/08 12:42:55;;;;;;;25.13;14.98;;;8.30;1.00;;;;;;4991186;28;20095;-61
2024/03/08 12:45:23;;;;;;;24.92;14.25;;;8.40;1.00;;;;;;4989649;28;20034;-62